sensor_id;sensor_type;location;lat;lon;timestamp;temperature;humidity
40589;DHT22;26297;49.450;6.640;2023-09-08T00:00:04;19.70;99.90
40589;DHT22;26297;49.450;6.640;2023-09-08T00:03:08;19.60;99.90
40589;DHT22;26297;49.450;6.640;2023-09-08T00:06:11;19.60;99.90
40589;DHT22;26297;49.450;6.640;2023-09-08T00:09:14;19.60;99.90
40589;DHT22;26297;49.450;6.640;2023-09-08T00:12:17;19.60;99.90
40589;DHT22;26297;49.450;6.640;2023-09-08T00:15:20;19.50;99.90
40589;DHT22;26297;49.450;6.640;2023-09-08T00:18:23;19.50;99.90
40589;DHT22;26297;49.450;6.640;2023-09-08T00:21:26;19.50;99.90
40589;DHT22;26297;49.450;6.640;2023-09-08T00:24:29;19.50;99.90
40589;DHT22;26297;49.450;6.640;2023-09-08T00:27:33;19.50;99.90
40589;DHT22;26297;49.450;6.640;2023-09-08T00:30:36;19.50;99.90
40589;DHT22;26297;49.450;6.640;2023-09-08T00:33:39;19.60;99.90
40589;DHT22;26297;49.450;6.640;2023-09-08T00:36:45;19.60;99.90
40589;DHT22;26297;49.450;6.640;2023-09-08T00:39:48;19.60;99.90
40589;DHT22;26297;49.450;6.640;2023-09-08T00:42:52;19.50;99.90
40589;DHT22;26297;49.450;6.640;2023-09-08T00:45:55;19.50;99.90
40589;DHT22;26297;49.450;6.640;2023-09-08T00:48:58;19.50;99.90
40589;DHT22;26297;49.450;6.640;2023-09-08T00:52:01;19.50;99.90
40589;DHT22;26297;49.450;6.640;2023-09-08T00:55:04;19.50;99.90
40589;DHT22;26297;49.450;6.640;2023-09-08T00:58:07;19.50;99.90
40589;DHT22;26297;49.450;6.640;2023-09-08T01:01:10;19.40;99.90
40589;DHT22;26297;49.450;6.640;2023-09-08T01:04:14;19.40;99.90
40589;DHT22;26297;49.450;6.640;2023-09-08T01:07:17;19.40;99.90
40589;DHT22;26297;49.450;6.640;2023-09-08T01:10:21;19.40;99.90
40589;DHT22;26297;49.450;6.640;2023-09-08T01:13:24;19.40;99.90
40589;DHT22;26297;49.450;6.640;2023-09-08T01:16:27;19.40;99.90
40589;DHT22;26297;49.450;6.640;2023-09-08T01:19:30;19.40;99.90
40589;DHT22;26297;49.450;6.640;2023-09-08T01:26:07;19.30;99.90
40589;DHT22;26297;49.450;6.640;2023-09-08T01:29:10;19.30;99.90
40589;DHT22;26297;49.450;6.640;2023-09-08T01:32:14;19.30;99.90
40589;DHT22;26297;49.450;6.640;2023-09-08T01:35:18;19.30;99.90
40589;DHT22;26297;49.450;6.640;2023-09-08T01:38:21;19.30;99.90
40589;DHT22;26297;49.450;6.640;2023-09-08T01:41:24;19.30;99.90
40589;DHT22;26297;49.450;6.640;2023-09-08T01:44:27;19.20;99.90
40589;DHT22;26297;49.450;6.640;2023-09-08T01:47:31;19.20;99.90
40589;DHT22;26297;49.450;6.640;2023-09-08T01:50:34;19.20;99.90
40589;DHT22;26297;49.450;6.640;2023-09-08T01:53:37;19.20;99.90
40589;DHT22;26297;49.450;6.640;2023-09-08T01:56:40;19.20;99.90
40589;DHT22;26297;49.450;6.640;2023-09-08T01:59:43;19.20;99.90
40589;DHT22;26297;49.450;6.640;2023-09-08T02:02:47;19.20;99.90
40589;DHT22;26297;49.450;6.640;2023-09-08T02:05:50;19.10;99.90
40589;DHT22;26297;49.450;6.640;2023-09-08T02:08:54;19.10;99.90
40589;DHT22;26297;49.450;6.640;2023-09-08T02:11:57;19.10;99.90
40589;DHT22;26297;49.450;6.640;2023-09-08T02:15:00;19.10;99.90
40589;DHT22;26297;49.450;6.640;2023-09-08T02:18:03;19.10;99.90
40589;DHT22;26297;49.450;6.640;2023-09-08T02:21:06;19.10;99.90
40589;DHT22;26297;49.450;6.640;2023-09-08T02:24:09;19.10;99.90
40589;DHT22;26297;49.450;6.640;2023-09-08T02:27:12;19.10;99.90
40589;DHT22;26297;49.450;6.640;2023-09-08T02:30:15;19.00;99.90
40589;DHT22;26297;49.450;6.640;2023-09-08T02:33:18;19.00;99.90
40589;DHT22;26297;49.450;6.640;2023-09-08T02:36:21;19.00;99.90
40589;DHT22;26297;49.450;6.640;2023-09-08T02:39:27;19.00;99.90
40589;DHT22;26297;49.450;6.640;2023-09-08T02:42:30;19.00;99.90
40589;DHT22;26297;49.450;6.640;2023-09-08T02:45:34;19.00;99.90
40589;DHT22;26297;49.450;6.640;2023-09-08T02:48:37;19.00;99.90
40589;DHT22;26297;49.450;6.640;2023-09-08T02:51:40;19.00;99.90
40589;DHT22;26297;49.450;6.640;2023-09-08T02:54:43;19.00;99.90
40589;DHT22;26297;49.450;6.640;2023-09-08T02:57:47;19.00;99.90
40589;DHT22;26297;49.450;6.640;2023-09-08T03:00:50;18.90;99.90
40589;DHT22;26297;49.450;6.640;2023-09-08T03:03:54;18.90;99.90
40589;DHT22;26297;49.450;6.640;2023-09-08T03:06:57;18.90;99.90
40589;DHT22;26297;49.450;6.640;2023-09-08T03:10:01;18.90;99.90
40589;DHT22;26297;49.450;6.640;2023-09-08T03:13:04;18.90;99.90
40589;DHT22;26297;49.450;6.640;2023-09-08T03:16:08;18.90;99.90
40589;DHT22;26297;49.450;6.640;2023-09-08T03:19:11;18.80;99.90
40589;DHT22;26297;49.450;6.640;2023-09-08T03:22:14;18.80;99.90
40589;DHT22;26297;49.450;6.640;2023-09-08T03:25:17;18.80;99.90
40589;DHT22;26297;49.450;6.640;2023-09-08T03:28:21;18.80;99.90
40589;DHT22;26297;49.450;6.640;2023-09-08T03:31:24;18.80;99.90
40589;DHT22;26297;49.450;6.640;2023-09-08T03:34:28;18.80;99.90
40589;DHT22;26297;49.450;6.640;2023-09-08T03:37:31;18.80;99.90
40589;DHT22;26297;49.450;6.640;2023-09-08T03:40:34;18.80;99.90
40589;DHT22;26297;49.450;6.640;2023-09-08T03:43:37;18.70;99.90
40589;DHT22;26297;49.450;6.640;2023-09-08T03:46:40;18.70;99.90
40589;DHT22;26297;49.450;6.640;2023-09-08T03:49:50;18.70;99.90
40589;DHT22;26297;49.450;6.640;2023-09-08T03:52:55;18.70;99.90
40589;DHT22;26297;49.450;6.640;2023-09-08T03:55:59;18.70;99.90
40589;DHT22;26297;49.450;6.640;2023-09-08T03:59:02;18.70;99.90
40589;DHT22;26297;49.450;6.640;2023-09-08T04:02:05;18.70;99.90
40589;DHT22;26297;49.450;6.640;2023-09-08T04:05:08;18.70;99.90
40589;DHT22;26297;49.450;6.640;2023-09-08T04:08:13;18.70;99.90
40589;DHT22;26297;49.450;6.640;2023-09-08T04:11:16;18.70;99.90
40589;DHT22;26297;49.450;6.640;2023-09-08T04:14:19;18.60;99.90
40589;DHT22;26297;49.450;6.640;2023-09-08T04:17:22;18.70;99.90
40589;DHT22;26297;49.450;6.640;2023-09-08T04:20:25;18.70;99.90
40589;DHT22;26297;49.450;6.640;2023-09-08T04:23:29;18.60;99.90
40589;DHT22;26297;49.450;6.640;2023-09-08T04:26:32;18.60;99.90
40589;DHT22;26297;49.450;6.640;2023-09-08T04:29:35;18.60;99.90
40589;DHT22;26297;49.450;6.640;2023-09-08T04:32:38;18.60;99.90
40589;DHT22;26297;49.450;6.640;2023-09-08T04:35:41;18.60;99.90
40589;DHT22;26297;49.450;6.640;2023-09-08T04:38:44;18.60;99.90
40589;DHT22;26297;49.450;6.640;2023-09-08T04:41:47;18.60;99.90
40589;DHT22;26297;49.450;6.640;2023-09-08T04:44:51;18.60;99.90
40589;DHT22;26297;49.450;6.640;2023-09-08T04:47:54;18.60;99.90
40589;DHT22;26297;49.450;6.640;2023-09-08T04:50:57;18.50;99.90
40589;DHT22;26297;49.450;6.640;2023-09-08T04:54:00;18.50;99.90
40589;DHT22;26297;49.450;6.640;2023-09-08T04:57:03;18.50;99.90
40589;DHT22;26297;49.450;6.640;2023-09-08T05:00:06;18.50;99.90
40589;DHT22;26297;49.450;6.640;2023-09-08T05:03:10;18.50;99.90
40589;DHT22;26297;49.450;6.640;2023-09-08T05:06:13;18.50;99.90
40589;DHT22;26297;49.450;6.640;2023-09-08T05:09:16;18.50;99.90
40589;DHT22;26297;49.450;6.640;2023-09-08T05:12:19;18.50;99.90
40589;DHT22;26297;49.450;6.640;2023-09-08T05:15:23;18.50;99.90
40589;DHT22;26297;49.450;6.640;2023-09-08T05:18:28;18.50;99.90
40589;DHT22;26297;49.450;6.640;2023-09-08T05:21:31;18.50;99.90
40589;DHT22;26297;49.450;6.640;2023-09-08T05:24:34;18.50;99.90
40589;DHT22;26297;49.450;6.640;2023-09-08T05:27:38;18.40;99.90
40589;DHT22;26297;49.450;6.640;2023-09-08T05:30:41;18.40;99.90
40589;DHT22;26297;49.450;6.640;2023-09-08T05:33:45;18.40;99.90
40589;DHT22;26297;49.450;6.640;2023-09-08T05:36:48;18.40;99.90
40589;DHT22;26297;49.450;6.640;2023-09-08T05:39:54;18.50;99.90
40589;DHT22;26297;49.450;6.640;2023-09-08T05:43:07;18.60;99.90
40589;DHT22;26297;49.450;6.640;2023-09-08T05:46:10;18.50;99.90
40589;DHT22;26297;49.450;6.640;2023-09-08T05:49:13;18.50;99.90
40589;DHT22;26297;49.450;6.640;2023-09-08T05:52:17;18.50;99.90
40589;DHT22;26297;49.450;6.640;2023-09-08T05:55:20;18.60;99.90
40589;DHT22;26297;49.450;6.640;2023-09-08T05:58:32;18.60;99.90
40589;DHT22;26297;49.450;6.640;2023-09-08T06:01:38;18.70;99.90
40589;DHT22;26297;49.450;6.640;2023-09-08T06:04:44;18.80;99.90
40589;DHT22;26297;49.450;6.640;2023-09-08T06:07:47;18.80;99.90
40589;DHT22;26297;49.450;6.640;2023-09-08T06:10:52;18.80;99.90
40589;DHT22;26297;49.450;6.640;2023-09-08T06:14:12;18.80;99.90
40589;DHT22;26297;49.450;6.640;2023-09-08T06:17:16;18.90;99.90
40589;DHT22;26297;49.450;6.640;2023-09-08T06:20:21;18.90;99.90
40589;DHT22;26297;49.450;6.640;2023-09-08T06:23:24;18.80;99.90
40589;DHT22;26297;49.450;6.640;2023-09-08T06:26:37;18.80;99.90
40589;DHT22;26297;49.450;6.640;2023-09-08T06:29:46;18.80;99.90
40589;DHT22;26297;49.450;6.640;2023-09-08T06:33:00;18.80;99.90
40589;DHT22;26297;49.450;6.640;2023-09-08T06:36:11;18.80;99.90
40589;DHT22;26297;49.450;6.640;2023-09-08T06:39:14;18.80;99.90
40589;DHT22;26297;49.450;6.640;2023-09-08T06:42:20;18.90;99.90
40589;DHT22;26297;49.450;6.640;2023-09-08T06:45:40;19.00;99.90
40589;DHT22;26297;49.450;6.640;2023-09-08T06:48:48;19.10;99.90
40589;DHT22;26297;49.450;6.640;2023-09-08T06:51:51;19.20;99.90
40589;DHT22;26297;49.450;6.640;2023-09-08T06:54:54;19.20;99.90
40589;DHT22;26297;49.450;6.640;2023-09-08T06:57:57;19.30;99.90
40589;DHT22;26297;49.450;6.640;2023-09-08T07:01:01;19.30;99.90
40589;DHT22;26297;49.450;6.640;2023-09-08T07:04:10;19.40;99.90
40589;DHT22;26297;49.450;6.640;2023-09-08T07:07:13;19.40;99.90
40589;DHT22;26297;49.450;6.640;2023-09-08T07:10:16;19.50;99.90
40589;DHT22;26297;49.450;6.640;2023-09-08T07:13:20;19.50;99.90
40589;DHT22;26297;49.450;6.640;2023-09-08T07:16:25;19.50;99.90
40589;DHT22;26297;49.450;6.640;2023-09-08T07:19:34;19.50;99.90
40589;DHT22;26297;49.450;6.640;2023-09-08T07:22:37;19.50;99.90
40589;DHT22;26297;49.450;6.640;2023-09-08T07:25:52;19.60;99.90
40589;DHT22;26297;49.450;6.640;2023-09-08T07:28:59;19.60;99.90
40589;DHT22;26297;49.450;6.640;2023-09-08T07:32:05;19.70;99.90
40589;DHT22;26297;49.450;6.640;2023-09-08T07:35:08;19.70;99.90
40589;DHT22;26297;49.450;6.640;2023-09-08T07:38:16;19.70;99.90
40589;DHT22;26297;49.450;6.640;2023-09-08T07:41:19;19.70;99.90
40589;DHT22;26297;49.450;6.640;2023-09-08T07:44:22;19.70;99.90
40589;DHT22;26297;49.450;6.640;2023-09-08T07:47:26;19.80;99.90
40589;DHT22;26297;49.450;6.640;2023-09-08T07:50:29;19.80;99.90
40589;DHT22;26297;49.450;6.640;2023-09-08T07:53:32;19.80;99.90
40589;DHT22;26297;49.450;6.640;2023-09-08T07:56:35;19.90;99.90
40589;DHT22;26297;49.450;6.640;2023-09-08T07:59:38;19.90;99.90
40589;DHT22;26297;49.450;6.640;2023-09-08T08:02:44;19.90;99.90
40589;DHT22;26297;49.450;6.640;2023-09-08T08:05:47;19.90;99.90
40589;DHT22;26297;49.450;6.640;2023-09-08T08:08:52;19.90;99.90
40589;DHT22;26297;49.450;6.640;2023-09-08T08:11:56;19.90;99.90
40589;DHT22;26297;49.450;6.640;2023-09-08T08:14:59;20.00;99.90
40589;DHT22;26297;49.450;6.640;2023-09-08T08:18:03;20.00;99.90
40589;DHT22;26297;49.450;6.640;2023-09-08T08:21:06;20.00;99.90
40589;DHT22;26297;49.450;6.640;2023-09-08T08:24:10;20.10;99.90
40589;DHT22;26297;49.450;6.640;2023-09-08T08:27:13;20.10;99.90
40589;DHT22;26297;49.450;6.640;2023-09-08T08:30:19;20.10;99.90
40589;DHT22;26297;49.450;6.640;2023-09-08T08:33:23;20.10;99.90
40589;DHT22;26297;49.450;6.640;2023-09-08T08:40:00;20.20;99.90
40589;DHT22;26297;49.450;6.640;2023-09-08T08:43:03;20.20;99.90
40589;DHT22;26297;49.450;6.640;2023-09-08T08:46:07;20.30;99.90
40589;DHT22;26297;49.450;6.640;2023-09-08T08:49:11;20.30;99.90
40589;DHT22;26297;49.450;6.640;2023-09-08T08:52:17;20.30;99.90
40589;DHT22;26297;49.450;6.640;2023-09-08T08:55:22;20.30;99.90
40589;DHT22;26297;49.450;6.640;2023-09-08T08:58:31;20.30;99.90
40589;DHT22;26297;49.450;6.640;2023-09-08T09:01:34;20.30;99.90
40589;DHT22;26297;49.450;6.640;2023-09-08T09:04:41;20.30;99.90
40589;DHT22;26297;49.450;6.640;2023-09-08T09:07:49;20.40;99.90
40589;DHT22;26297;49.450;6.640;2023-09-08T09:11:19;20.40;99.90
40589;DHT22;26297;49.450;6.640;2023-09-08T09:14:22;20.40;99.90
40589;DHT22;26297;49.450;6.640;2023-09-08T09:17:30;20.40;99.90
40589;DHT22;26297;49.450;6.640;2023-09-08T09:23:59;20.40;99.90
40589;DHT22;26297;49.450;6.640;2023-09-08T09:27:06;20.40;99.90
40589;DHT22;26297;49.450;6.640;2023-09-08T09:30:09;20.50;99.90
40589;DHT22;26297;49.450;6.640;2023-09-08T09:33:13;20.40;99.90
40589;DHT22;26297;49.450;6.640;2023-09-08T09:36:20;20.50;99.90
40589;DHT22;26297;49.450;6.640;2023-09-08T09:39:24;20.40;99.90
40589;DHT22;26297;49.450;6.640;2023-09-08T09:42:28;20.40;99.90
40589;DHT22;26297;49.450;6.640;2023-09-08T09:45:35;20.50;99.90
40589;DHT22;26297;49.450;6.640;2023-09-08T09:48:38;20.50;99.90
40589;DHT22;26297;49.450;6.640;2023-09-08T09:51:54;20.50;99.90
40589;DHT22;26297;49.450;6.640;2023-09-08T09:54:58;20.50;99.90
40589;DHT22;26297;49.450;6.640;2023-09-08T09:58:02;20.60;99.90
40589;DHT22;26297;49.450;6.640;2023-09-08T10:01:06;20.60;99.90
40589;DHT22;26297;49.450;6.640;2023-09-08T10:04:13;20.60;99.90
40589;DHT22;26297;49.450;6.640;2023-09-08T10:07:18;20.70;99.90
40589;DHT22;26297;49.450;6.640;2023-09-08T10:10:21;20.70;99.90
40589;DHT22;26297;49.450;6.640;2023-09-08T10:13:26;20.70;99.90
40589;DHT22;26297;49.450;6.640;2023-09-08T10:20:26;20.80;99.90
40589;DHT22;26297;49.450;6.640;2023-09-08T10:26:40;20.80;99.90
40589;DHT22;26297;49.450;6.640;2023-09-08T10:33:15;20.80;99.90
40589;DHT22;26297;49.450;6.640;2023-09-08T10:36:30;20.80;99.90
40589;DHT22;26297;49.450;6.640;2023-09-08T10:40:19;20.80;99.90
40589;DHT22;26297;49.450;6.640;2023-09-08T10:43:26;20.80;99.90
40589;DHT22;26297;49.450;6.640;2023-09-08T10:50:05;20.80;99.90
40589;DHT22;26297;49.450;6.640;2023-09-08T10:57:06;20.80;99.90
40589;DHT22;26297;49.450;6.640;2023-09-08T11:00:21;20.80;99.90
40589;DHT22;26297;49.450;6.640;2023-09-08T11:07:29;20.90;99.90
40589;DHT22;26297;49.450;6.640;2023-09-08T11:13:17;20.90;99.90
40589;DHT22;26297;49.450;6.640;2023-09-08T11:20:31;20.80;99.90
40589;DHT22;26297;49.450;6.640;2023-09-08T11:27:23;20.90;99.90
40589;DHT22;26297;49.450;6.640;2023-09-08T11:30:50;20.90;99.90
40589;DHT22;26297;49.450;6.640;2023-09-08T11:34:16;21.00;99.90
40589;DHT22;26297;49.450;6.640;2023-09-08T11:37:30;21.00;99.90
40589;DHT22;26297;49.450;6.640;2023-09-08T11:41:10;20.90;99.90
40589;DHT22;26297;49.450;6.640;2023-09-08T11:44:21;20.90;99.90
40589;DHT22;26297;49.450;6.640;2023-09-08T11:47:32;20.90;99.90
40589;DHT22;26297;49.450;6.640;2023-09-08T11:50:38;21.00;99.90
40589;DHT22;26297;49.450;6.640;2023-09-08T11:53:50;21.00;99.90
40589;DHT22;26297;49.450;6.640;2023-09-08T11:57:04;20.90;99.90
40589;DHT22;26297;49.450;6.640;2023-09-08T12:00:15;20.90;99.90
40589;DHT22;26297;49.450;6.640;2023-09-08T12:03:27;20.90;99.90
40589;DHT22;26297;49.450;6.640;2023-09-08T12:06:40;20.90;99.90
40589;DHT22;26297;49.450;6.640;2023-09-08T12:10:02;20.90;99.90
40589;DHT22;26297;49.450;6.640;2023-09-08T12:13:33;21.00;99.90
40589;DHT22;26297;49.450;6.640;2023-09-08T12:16:40;20.90;99.90
40589;DHT22;26297;49.450;6.640;2023-09-08T12:20:33;21.00;99.90
40589;DHT22;26297;49.450;6.640;2023-09-08T12:23:49;21.00;99.90
40589;DHT22;26297;49.450;6.640;2023-09-08T12:30:42;20.90;99.90
40589;DHT22;26297;49.450;6.640;2023-09-08T12:33:47;21.00;99.90
40589;DHT22;26297;49.450;6.640;2023-09-08T12:37:06;21.10;99.90
40589;DHT22;26297;49.450;6.640;2023-09-08T12:40:17;21.10;99.90
40589;DHT22;26297;49.450;6.640;2023-09-08T12:43:32;21.10;99.90
40589;DHT22;26297;49.450;6.640;2023-09-08T12:46:38;21.10;99.90
40589;DHT22;26297;49.450;6.640;2023-09-08T12:50:12;21.10;99.90
40589;DHT22;26297;49.450;6.640;2023-09-08T12:53:33;21.20;99.90
40589;DHT22;26297;49.450;6.640;2023-09-08T12:56:57;21.20;99.90
40589;DHT22;26297;49.450;6.640;2023-09-08T13:00:07;21.20;99.90
40589;DHT22;26297;49.450;6.640;2023-09-08T13:03:17;21.20;99.90
40589;DHT22;26297;49.450;6.640;2023-09-08T13:13:37;21.10;99.90
40589;DHT22;26297;49.450;6.640;2023-09-08T13:17:07;21.20;99.90
40589;DHT22;26297;49.450;6.640;2023-09-08T13:20:27;21.10;99.90
40589;DHT22;26297;49.450;6.640;2023-09-08T13:23:36;21.20;99.90
40589;DHT22;26297;49.450;6.640;2023-09-08T13:26:52;21.30;99.90
40589;DHT22;26297;49.450;6.640;2023-09-08T13:30:14;21.40;99.90
40589;DHT22;26297;49.450;6.640;2023-09-08T13:37:21;21.30;99.90
40589;DHT22;26297;49.450;6.640;2023-09-08T13:40:31;21.30;99.90
40589;DHT22;26297;49.450;6.640;2023-09-08T13:43:43;21.20;99.90
40589;DHT22;26297;49.450;6.640;2023-09-08T13:46:53;21.20;99.90
40589;DHT22;26297;49.450;6.640;2023-09-08T13:50:17;21.20;99.90
40589;DHT22;26297;49.450;6.640;2023-09-08T13:53:52;21.20;99.90
40589;DHT22;26297;49.450;6.640;2023-09-08T13:57:20;21.10;99.90
40589;DHT22;26297;49.450;6.640;2023-09-08T14:00:50;21.20;99.90
40589;DHT22;26297;49.450;6.640;2023-09-08T14:04:03;21.20;99.90
40589;DHT22;26297;49.450;6.640;2023-09-08T14:07:13;21.30;99.90
40589;DHT22;26297;49.450;6.640;2023-09-08T14:10:27;21.40;99.90
40589;DHT22;26297;49.450;6.640;2023-09-08T14:13:48;21.40;99.90
40589;DHT22;26297;49.450;6.640;2023-09-08T14:17:01;21.40;99.90
40589;DHT22;26297;49.450;6.640;2023-09-08T14:20:10;21.40;99.90
40589;DHT22;26297;49.450;6.640;2023-09-08T14:27:11;21.40;99.90
40589;DHT22;26297;49.450;6.640;2023-09-08T14:30:17;21.40;99.90
40589;DHT22;26297;49.450;6.640;2023-09-08T14:33:40;21.40;99.90
40589;DHT22;26297;49.450;6.640;2023-09-08T14:36:55;21.40;99.90
40589;DHT22;26297;49.450;6.640;2023-09-08T14:40:15;21.40;99.90
40589;DHT22;26297;49.450;6.640;2023-09-08T14:43:32;21.50;99.90
40589;DHT22;26297;49.450;6.640;2023-09-08T14:50:25;21.40;99.90
40589;DHT22;26297;49.450;6.640;2023-09-08T14:56:53;21.30;99.90
40589;DHT22;26297;49.450;6.640;2023-09-08T15:03:30;21.30;99.90
40589;DHT22;26297;49.450;6.640;2023-09-08T15:06:47;21.30;99.90
40589;DHT22;26297;49.450;6.640;2023-09-08T15:09:54;21.30;99.90
40589;DHT22;26297;49.450;6.640;2023-09-08T15:13:06;21.30;99.90
40589;DHT22;26297;49.450;6.640;2023-09-08T15:16:43;21.20;99.90
40589;DHT22;26297;49.450;6.640;2023-09-08T15:19:48;21.20;99.90
40589;DHT22;26297;49.450;6.640;2023-09-08T15:26:18;21.20;99.90
40589;DHT22;26297;49.450;6.640;2023-09-08T15:29:35;21.20;99.90
40589;DHT22;26297;49.450;6.640;2023-09-08T15:36:31;21.20;99.90
40589;DHT22;26297;49.450;6.640;2023-09-08T15:40:12;21.20;99.90
40589;DHT22;26297;49.450;6.640;2023-09-08T15:43:17;21.20;99.90
40589;DHT22;26297;49.450;6.640;2023-09-08T15:46:34;21.20;99.90
40589;DHT22;26297;49.450;6.640;2023-09-08T15:49:48;21.20;99.90
40589;DHT22;26297;49.450;6.640;2023-09-08T15:56:21;21.20;99.90
40589;DHT22;26297;49.450;6.640;2023-09-08T15:59:50;21.20;99.90
40589;DHT22;26297;49.450;6.640;2023-09-08T16:03:01;21.20;99.90
40589;DHT22;26297;49.450;6.640;2023-09-08T16:06:22;21.20;99.90
40589;DHT22;26297;49.450;6.640;2023-09-08T16:13:07;21.20;99.90
40589;DHT22;26297;49.450;6.640;2023-09-08T16:16:10;21.20;99.90
40589;DHT22;26297;49.450;6.640;2023-09-08T16:19:14;21.20;99.90
40589;DHT22;26297;49.450;6.640;2023-09-08T16:22:17;21.20;99.90
40589;DHT22;26297;49.450;6.640;2023-09-08T16:25:27;21.20;99.90
40589;DHT22;26297;49.450;6.640;2023-09-08T16:28:39;21.10;99.90
40589;DHT22;26297;49.450;6.640;2023-09-08T16:31:47;21.20;99.90
40589;DHT22;26297;49.450;6.640;2023-09-08T16:34:57;21.20;99.90
40589;DHT22;26297;49.450;6.640;2023-09-08T16:38:06;21.20;99.90
40589;DHT22;26297;49.450;6.640;2023-09-08T16:41:15;21.20;99.90
40589;DHT22;26297;49.450;6.640;2023-09-08T16:44:22;21.20;99.90
40589;DHT22;26297;49.450;6.640;2023-09-08T16:47:28;21.20;99.90
40589;DHT22;26297;49.450;6.640;2023-09-08T16:50:36;21.20;99.90
40589;DHT22;26297;49.450;6.640;2023-09-08T16:53:54;21.20;99.90
40589;DHT22;26297;49.450;6.640;2023-09-08T16:57:03;21.20;99.90
40589;DHT22;26297;49.450;6.640;2023-09-08T17:00:09;21.20;99.90
40589;DHT22;26297;49.450;6.640;2023-09-08T17:03:26;21.20;99.90
40589;DHT22;26297;49.450;6.640;2023-09-08T17:06:35;21.20;99.90
40589;DHT22;26297;49.450;6.640;2023-09-08T17:12:36;21.20;99.90
40589;DHT22;26297;49.450;6.640;2023-09-08T17:15:51;21.20;99.90
40589;DHT22;26297;49.450;6.640;2023-09-08T17:19:04;21.10;99.90
40589;DHT22;26297;49.450;6.640;2023-09-08T17:22:13;21.10;99.90
40589;DHT22;26297;49.450;6.640;2023-09-08T17:25:29;21.10;99.90
40589;DHT22;26297;49.450;6.640;2023-09-08T17:28:48;21.10;99.90
40589;DHT22;26297;49.450;6.640;2023-09-08T17:31:58;21.10;99.90
40589;DHT22;26297;49.450;6.640;2023-09-08T18:21:43;21.20;99.90
40589;DHT22;26297;49.450;6.640;2023-09-08T18:24:49;21.10;99.90
40589;DHT22;26297;49.450;6.640;2023-09-08T18:43:18;21.20;99.90
40589;DHT22;26297;49.450;6.640;2023-09-08T18:46:47;21.20;99.90
40589;DHT22;26297;49.450;6.640;2023-09-08T19:21:18;21.20;99.90
40589;DHT22;26297;49.450;6.640;2023-09-08T19:24:24;21.30;99.90
40589;DHT22;26297;49.450;6.640;2023-09-08T19:27:28;21.30;99.90
40589;DHT22;26297;49.450;6.640;2023-09-08T19:30:31;21.30;99.90
40589;DHT22;26297;49.450;6.640;2023-09-08T19:33:50;21.30;99.90
40589;DHT22;26297;49.450;6.640;2023-09-08T19:36:56;21.30;99.90
40589;DHT22;26297;49.450;6.640;2023-09-08T19:40:00;21.30;99.90
40589;DHT22;26297;49.450;6.640;2023-09-08T19:43:03;21.30;99.90
40589;DHT22;26297;49.450;6.640;2023-09-08T19:46:06;21.30;99.90
40589;DHT22;26297;49.450;6.640;2023-09-08T19:49:09;21.20;99.90
40589;DHT22;26297;49.450;6.640;2023-09-08T19:52:22;21.20;99.90
40589;DHT22;26297;49.450;6.640;2023-09-08T19:55:25;21.20;99.90
40589;DHT22;26297;49.450;6.640;2023-09-08T19:58:32;21.20;99.90
40589;DHT22;26297;49.450;6.640;2023-09-08T20:46:07;21.20;99.90
40589;DHT22;26297;49.450;6.640;2023-09-08T20:49:18;21.10;99.90
40589;DHT22;26297;49.450;6.640;2023-09-08T22:58:52;20.30;99.90
40589;DHT22;26297;49.450;6.640;2023-09-08T23:02:02;20.30;99.90
40589;DHT22;26297;49.450;6.640;2023-09-08T23:05:17;20.30;99.90
40589;DHT22;26297;49.450;6.640;2023-09-08T23:08:27;20.40;99.90
40589;DHT22;26297;49.450;6.640;2023-09-08T23:11:39;20.30;99.90
40589;DHT22;26297;49.450;6.640;2023-09-08T23:14:43;20.20;99.90
40589;DHT22;26297;49.450;6.640;2023-09-08T23:17:52;20.20;99.90
40589;DHT22;26297;49.450;6.640;2023-09-08T23:20:56;20.30;99.90
40589;DHT22;26297;49.450;6.640;2023-09-08T23:24:02;20.20;99.90
40589;DHT22;26297;49.450;6.640;2023-09-08T23:27:14;20.20;99.90
40589;DHT22;26297;49.450;6.640;2023-09-08T23:30:24;20.30;99.90
40589;DHT22;26297;49.450;6.640;2023-09-08T23:33:36;20.20;99.90
40589;DHT22;26297;49.450;6.640;2023-09-08T23:36:47;20.20;99.90
40589;DHT22;26297;49.450;6.640;2023-09-08T23:40:04;20.10;99.90
40589;DHT22;26297;49.450;6.640;2023-09-08T23:43:18;20.10;99.90
40589;DHT22;26297;49.450;6.640;2023-09-08T23:49:26;20.10;99.90
40589;DHT22;26297;49.450;6.640;2023-09-08T23:52:36;20.10;99.90
40589;DHT22;26297;49.450;6.640;2023-09-08T23:55:42;20.10;99.90
40589;DHT22;26297;49.450;6.640;2023-09-08T23:58:51;20.10;99.90
